West Wellow, United Kingdom
Current Conditions -  °F | °C
As of 11:50 AM on Wednesday 28 Jan 2015 (Local Time) from EGHI Reporting Station
Rain Showers Rain Showers  
Wind Chill:   Ceiling: 2700
Heat Index:   Visibility: 6mi
Dew Point:   Wind: 20mph
Humidity: 66%   Direction: 280°W
Pressure: 29.62"   Gusts: 36mph
Location:  50.97°N, 1.58°W
Report Text: EGHI 281150Z 28017G31KT 240V340 9000 -SHRA FEW016 BKN027 09/03 Q1003
Loading
Personal Weather Stations






























Interactive Weather Map New forecast layout! Learn more

10-Day Weather Forecast

Advertisements
Track Severe Weather on mobile